San Bernardino International Airport
KSBD : now visible

Airfield :











YOU CAN JOIN US ON...

 
LOGIN :

Register | Disclaimer

   EN    FR    IT 

 









Legend :    VFR   Marginal VFR   IFR   Intensive IFR   Very Intensive IFR
Visi :
Ceiling :
>= 8 km
>= 3000ft
5 to 8 km
1000 to 3000 ft
1500m to 5 km
500 to 1000 ft
800 to 1500m
200 to 500 ft
< 800m
< 200 ft
Symbols :   Thunderstorms  Fog  Heavy snow  Heavy precipitations  Wind > 20 kt






- Airport Elevation : 1159 ft


KSBD - San Bernardino International

CURRENT METAR :
  • 151242Z AUTO 00000KT 10SM SCT010 SCT015 BKN034 10/08 A2994 RMK AO2 T01000076

EXPIRED METARs :
  • 151224Z AUTO 00000KT 10SM SCT010 BKN015 OVC049 10/08 A2994 RMK AO2 T01030081
  • 151200Z AUTO 00000KT 10SM SCT015 10/08 A2994 RMK AO2 T01000078
  • 151140Z AUTO 00000KT 10SM SCT014 SCT023 SCT050 11/09 A2994 RMK AO2 T01090085
  • 151121Z AUTO 00000KT 10SM SCT014 SCT023 BKN031 11/09 A2994 RMK AO2 T01100085
  • 151103Z AUTO 00000KT 10SM SCT029 BKN037 BKN044 11/09 A2994 RMK AO2 T01120085
  • 151044Z AUTO 00000KT 10SM SCT035 BKN042 BKN050 12/09 A2994 RMK AO2 T01190087
  • 151020Z AUTO 00000KT 10SM BKN037 BKN046 12/09 A2994 RMK AO2 T01210088
  • 151000Z AUTO 00000KT 10SM SCT037 SCT043 BKN048 12/09 A2995 RMK AO2 T01220090

TAF KSBD
Valid from the 15 at 12:00 until the 16 at 12:00 UTC


151130Z 1512/1612 VRB04KT P6SM SCT025 BKN035
FM151700 03010KT P6SM FEW035
FM160200 VRB04KT P6SM SCT250



MET'MAP, your aeronautical weather chart ! - Copyright ORBIFLY December 2007 - Disclaimer

ORBIFLY MET'MAP TEAM :

Programming & Development : Alexandra Zaïnal
Concept & original design : Baudouin d'Aumeries
Assistance for programming : Marc-Olivier Méhu
Technical & hardware support : Manuel Goepfert

Contact : metmap@orbifly.com




SOURCES & CREDITS :

   NOAA       Earth
Advisory